Time;durP1;ratioP1;P1;durP2;ratioP2;P2;SDS_P1;SDS_P2;PMS_P1;PMS_P2;Temp;Humidity;BMP_temperature;BMP_pressure;BME280_temperature;BME280_humidity;BME280_pressure;Samples;Min_cycle;Max_cycle;Signal;HPM_P1;HPM_P2
2024/02/27 00:02:20;;;;;;;29.42;16.95;;;3.10;99.90;;;;;;4962653;28;20463;-85
2024/02/27 00:04:46;;;;;;;33.78;17.92;;;3.20;99.90;;;;;;4951088;28;20116;-85
2024/02/27 00:07:12;;;;;;;30.90;16.73;;;3.20;99.90;;;;;;4972282;28;20550;-86
2024/02/27 00:09:47;;;;;;;27.55;16.65;;;3.20;99.90;;;;;;4951351;28;20082;-85
2024/02/27 00:12:13;;;;;;;27.20;16.80;;;3.20;99.90;;;;;;4952326;28;20056;-85
2024/02/27 00:14:38;;;;;;;27.45;15.30;;;3.20;99.90;;;;;;4965971;28;20030;-86
2024/02/27 00:17:04;;;;;;;26.95;15.52;;;3.20;99.90;;;;;;4962080;28;20081;-85
2024/02/27 00:19:36;;;;;;;29.77;15.73;;;3.20;99.90;;;;;;4970018;28;20279;-84
2024/02/27 00:22:01;;;;;;;27.75;15.18;;;3.30;99.90;;;;;;4981996;28;20577;-85
2024/02/27 00:24:27;;;;;;;27.60;15.27;;;3.30;99.90;;;;;;4953170;28;20019;-85
2024/02/27 00:26:52;;;;;;;32.05;16.67;;;3.30;99.90;;;;;;4963138;28;20713;-84
2024/02/27 00:29:18;;;;;;;29.27;16.83;;;3.30;99.90;;;;;;4958563;28;20121;-85
2024/02/27 00:31:44;;;;;;;30.08;16.20;;;3.30;99.90;;;;;;4967632;28;20029;-85
2024/02/27 00:34:09;;;;;;;31.73;16.02;;;3.30;99.90;;;;;;4979982;28;20029;-85
2024/02/27 00:36:35;;;;;;;30.10;17.98;;;3.30;99.90;;;;;;4957749;28;20026;-84
2024/02/27 00:39:03;;;;;;;31.05;16.88;;;3.30;99.90;;;;;;4954943;28;20022;-83
2024/02/27 00:41:29;;;;;;;33.55;16.50;;;3.30;99.90;;;;;;4960004;28;20033;-84
2024/02/27 00:43:54;;;;;;;31.95;17.48;;;3.30;99.90;;;;;;4965612;28;20417;-85
2024/02/27 00:46:20;;;;;;;33.78;17.48;;;3.30;99.90;;;;;;4975349;28;20061;-84
2024/02/27 00:48:46;;;;;;;32.80;16.23;;;3.30;99.90;;;;;;4974454;28;20073;-85
2024/02/27 00:51:12;;;;;;;33.95;16.85;;;3.30;99.90;;;;;;4970827;28;20034;-85
2024/02/27 00:53:39;;;;;;;31.45;16.23;;;3.30;99.90;;;;;;4977016;28;20034;-85
2024/02/27 00:56:05;;;;;;;32.00;15.93;;;3.30;99.90;;;;;;4968125;28;20026;-85
2024/02/27 00:58:36;;;;;;;32.78;16.77;;;3.30;99.90;;;;;;4983599;28;20122;-84
2024/02/27 01:01:02;;;;;;;28.73;15.57;;;3.30;99.90;;;;;;4979331;28;20433;-84
2024/02/27 01:03:28;;;;;;;27.23;15.25;;;3.30;99.90;;;;;;4971179;28;20026;-85
2024/02/27 01:05:54;;;;;;;29.42;16.20;;;3.30;99.90;;;;;;4971884;28;20022;-85
2024/02/27 01:08:19;;;;;;;29.27;16.27;;;3.30;99.90;;;;;;4977910;28;20096;-85
2024/02/27 01:10:45;;;;;;;28.77;15.50;;;3.30;99.90;;;;;;4989140;28;22026;-85
2024/02/27 01:13:10;;;;;;;29.25;15.43;;;3.30;99.90;;;;;;4978514;28;20513;-84
2024/02/27 01:15:36;;;;;;;28.90;16.48;;;3.30;99.90;;;;;;4968388;28;20066;-86
2024/02/27 01:18:02;;;;;;;23.23;14.43;;;3.30;99.90;;;;;;4979138;28;20037;-83
2024/02/27 01:20:28;;;;;;;30.33;17.10;;;3.30;99.90;;;;;;4986252;28;20062;-84
2024/02/27 01:22:53;;;;;;;24.58;14.55;;;3.30;99.90;;;;;;4973768;28;20062;-85
2024/02/27 01:25:19;;;;;;;26.77;16.83;;;3.30;99.90;;;;;;4980140;28;20030;-82
2024/02/27 01:27:44;;;;;;;30.55;15.45;;;3.30;99.90;;;;;;4977845;28;20049;-86
2024/02/27 01:30:10;;;;;;;31.60;17.20;;;3.30;99.90;;;;;;4978770;28;20041;-86
2024/02/27 01:32:36;;;;;;;32.67;16.50;;;3.30;99.90;;;;;;4974664;28;20039;-86
2024/02/27 01:35:01;;;;;;;27.85;15.60;;;3.40;99.90;;;;;;4987818;28;20034;-85
2024/02/27 01:37:30;;;;;;;30.17;15.95;;;3.40;99.90;;;;;;4976665;28;20395;-82
2024/02/27 01:39:55;;;;;;;25.02;14.50;;;3.30;99.90;;;;;;4980702;28;20434;-86
2024/02/27 01:42:21;;;;;;;27.20;14.38;;;3.30;99.90;;;;;;4975253;28;20030;-85
2024/02/27 01:44:49;;;;;;;29.85;15.32;;;3.30;99.90;;;;;;4986604;28;20121;-84
2024/02/27 01:47:15;;;;;;;25.92;14.60;;;3.30;99.90;;;;;;4978098;28;20032;-84
2024/02/27 01:49:42;;;;;;;29.45;14.95;;;3.30;99.90;;;;;;4981965;28;20049;-84
2024/02/27 01:52:07;;;;;;;25.17;14.68;;;3.30;99.90;;;;;;4982938;28;20026;-85
2024/02/27 01:54:33;;;;;;;29.15;15.32;;;3.30;99.90;;;;;;4979260;28;20030;-84
2024/02/27 01:56:59;;;;;;;30.42;16.33;;;3.40;99.90;;;;;;4980530;28;20026;-83
2024/02/27 01:59:25;;;;;;;27.70;16.27;;;3.30;99.90;;;;;;4996386;28;20026;-86
2024/02/27 02:01:52;;;;;;;25.63;15.63;;;3.30;99.90;;;;;;4978892;28;20172;-85
2024/02/27 02:04:18;;;;;;;25.98;16.40;;;3.30;99.90;;;;;;4993329;28;20030;-85
2024/02/27 02:06:44;;;;;;;28.85;16.00;;;3.40;99.90;;;;;;4978394;28;20041;-84
2024/02/27 02:09:11;;;;;;;30.38;16.98;;;3.40;99.90;;;;;;4976700;28;20412;-85
2024/02/27 02:11:37;;;;;;;29.88;17.10;;;3.40;99.90;;;;;;4982583;28;21062;-84
2024/02/27 02:14:03;;;;;;;30.42;16.27;;;3.40;99.90;;;;;;4972732;28;20117;-85
2024/02/27 02:16:28;;;;;;;34.72;17.65;;;3.40;99.90;;;;;;4977189;28;20129;-83
2024/02/27 02:18:56;;;;;;;28.67;16.35;;;3.40;99.90;;;;;;4978019;28;20030;-85
2024/02/27 02:21:21;;;;;;;27.20;16.50;;;3.40;99.90;;;;;;4973549;28;20034;-85
2024/02/27 02:23:47;;;;;;;26.55;15.07;;;3.40;99.90;;;;;;4985217;28;20498;-84
2024/02/27 02:26:13;;;;;;;27.42;15.63;;;3.40;99.90;;;;;;4977901;28;20510;-85
2024/02/27 02:28:39;;;;;;;29.67;16.38;;;3.40;99.90;;;;;;4974364;28;20486;-85
2024/02/27 02:31:04;;;;;;;25.02;15.02;;;3.40;99.90;;;;;;4981564;28;20026;-84
2024/02/27 02:33:30;;;;;;;24.13;14.73;;;3.40;99.90;;;;;;4988632;23;20100;-52
2024/02/27 02:35:55;;;;;;;26.23;16.20;;;3.50;99.90;;;;;;5006876;28;20064;-51
2024/02/27 02:38:21;;;;;;;28.25;16.65;;;3.50;99.90;;;;;;5016588;28;20682;-52
2024/02/27 02:40:47;;;;;;;30.23;16.05;;;3.50;99.90;;;;;;5003025;28;20043;-54
2024/02/27 02:43:12;;;;;;;27.50;15.45;;;3.50;99.90;;;;;;5003268;28;20041;-51
2024/02/27 02:45:40;;;;;;;24.02;15.90;;;3.50;99.90;;;;;;4992997;28;20428;-53
2024/02/27 02:48:06;;;;;;;21.55;13.77;;;3.50;99.90;;;;;;4994629;28;20050;-53
2024/02/27 02:50:32;;;;;;;23.63;13.65;;;3.50;99.90;;;;;;5009104;28;20037;-50
2024/02/27 02:52:58;;;;;;;24.38;14.50;;;3.40;99.90;;;;;;5002645;28;20041;-52
2024/02/27 02:55:24;;;;;;;23.33;14.75;;;3.40;99.90;;;;;;5002829;28;20060;-50
2024/02/27 02:57:50;;;;;;;23.38;15.07;;;3.40;99.90;;;;;;4992635;28;20033;-47
2024/02/27 03:00:16;;;;;;;23.05;14.60;;;3.40;99.90;;;;;;5004328;28;20030;-48
2024/02/27 03:02:41;;;;;;;21.77;14.73;;;3.40;99.90;;;;;;5004631;28;20025;-52
2024/02/27 03:05:12;;;;;;;22.35;14.00;;;3.40;99.90;;;;;;5029035;28;20030;-49
2024/02/27 03:07:38;;;;;;;23.92;13.20;;;3.40;99.90;;;;;;5002382;28;20038;-51
2024/02/27 03:10:04;;;;;;;22.95;14.70;;;3.40;99.90;;;;;;5012250;28;20032;-47
2024/02/27 03:12:29;;;;;;;25.77;15.43;;;3.40;99.90;;;;;;5006926;28;20013;-50
2024/02/27 03:14:55;;;;;;;20.83;12.30;;;3.30;99.90;;;;;;5004799;28;20045;-50
2024/02/27 03:17:20;;;;;;;21.15;13.55;;;3.30;99.90;;;;;;5003345;28;20393;-56
2024/02/27 03:19:46;;;;;;;21.35;12.40;;;3.30;99.90;;;;;;5009887;28;20029;-49
2024/02/27 03:22:13;;;;;;;22.33;11.77;;;3.30;99.90;;;;;;5009245;28;20072;-48
2024/02/27 03:24:39;;;;;;;21.50;12.38;;;3.20;99.90;;;;;;4997025;28;20032;-52
2024/02/27 03:27:04;;;;;;;20.13;11.27;;;3.20;99.90;;;;;;4990838;28;20105;-48
2024/02/27 03:29:30;;;;;;;17.58;10.07;;;3.20;99.90;;;;;;4988453;28;20656;-46
2024/02/27 03:31:56;;;;;;;17.98;10.45;;;3.20;99.90;;;;;;4999750;28;20529;-49
2024/02/27 03:34:24;;;;;;;17.25;10.55;;;3.10;99.90;;;;;;5016362;28;20028;-47
2024/02/27 03:36:49;;;;;;;23.50;11.23;;;3.10;99.90;;;;;;4994976;28;20113;-49
2024/02/27 03:39:15;;;;;;;21.73;12.02;;;3.10;99.90;;;;;;4990386;28;20105;-49
2024/02/27 03:41:41;;;;;;;20.20;12.30;;;3.00;99.90;;;;;;4995898;28;20510;-48
2024/02/27 03:44:06;;;;;;;20.50;12.05;;;3.00;99.90;;;;;;5001154;28;20049;-50
2024/02/27 03:46:32;;;;;;;22.15;11.32;;;3.00;99.90;;;;;;4997823;28;20025;-50
2024/02/27 03:48:57;;;;;;;21.80;11.43;;;3.00;99.90;;;;;;4998129;28;20026;-51
2024/02/27 03:51:23;;;;;;;19.27;11.20;;;3.00;99.90;;;;;;4997460;28;20079;-49
2024/02/27 03:53:48;;;;;;;22.38;12.23;;;3.00;99.90;;;;;;4985156;28;20032;-50
2024/02/27 03:56:14;;;;;;;20.80;10.85;;;3.00;99.90;;;;;;4998228;28;20061;-47
2024/02/27 03:58:43;;;;;;;20.45;11.18;;;3.00;99.90;;;;;;4987355;28;20014;-49
2024/02/27 04:01:08;;;;;;;22.48;12.55;;;3.00;99.90;;;;;;5008657;28;20025;-47
2024/02/27 04:03:34;;;;;;;22.00;11.70;;;2.90;99.90;;;;;;4996882;28;20646;-51
2024/02/27 04:06:00;;;;;;;21.75;11.27;;;2.90;99.90;;;;;;4992571;28;20413;-49
2024/02/27 04:08:26;;;;;;;23.70;12.18;;;2.80;99.90;;;;;;4985346;28;20035;-51
2024/02/27 04:10:51;;;;;;;21.77;11.18;;;2.80;99.90;;;;;;4996901;28;20037;-54
2024/02/27 04:13:17;;;;;;;21.35;11.05;;;2.80;99.90;;;;;;5008954;28;20079;-48
2024/02/27 04:15:46;;;;;;;18.60;11.85;;;2.70;99.90;;;;;;4987816;28;20054;-48
2024/02/27 04:18:11;;;;;;;23.17;13.07;;;2.70;99.90;;;;;;4985368;28;20037;-48
2024/02/27 04:20:37;;;;;;;23.67;12.73;;;2.70;99.90;;;;;;4985505;28;20040;-47
2024/02/27 04:23:03;;;;;;;23.30;12.20;;;2.70;99.90;;;;;;4996904;28;20130;-51
2024/02/27 04:25:28;;;;;;;24.23;11.55;;;2.70;99.90;;;;;;5005503;28;20033;-57
2024/02/27 04:27:54;;;;;;;22.77;13.00;;;2.70;99.90;;;;;;5000797;28;20117;-53
2024/02/27 04:30:19;;;;;;;26.40;12.75;;;2.70;99.90;;;;;;4986764;28;20582;-55
2024/02/27 04:32:45;;;;;;;21.75;11.88;;;2.60;99.90;;;;;;4981197;28;20037;-52
2024/02/27 04:35:10;;;;;;;22.50;13.38;;;2.60;99.90;;;;;;4993868;28;20033;-53
2024/02/27 04:37:36;;;;;;;26.15;13.25;;;2.60;99.90;;;;;;4988178;28;20087;-56
2024/02/27 04:40:04;;;;;;;25.00;13.38;;;2.60;99.90;;;;;;4999763;28;20040;-49
2024/02/27 04:42:30;;;;;;;22.65;12.55;;;2.60;99.90;;;;;;4996814;28;20050;-51
2024/02/27 04:44:55;;;;;;;24.30;12.68;;;2.60;99.90;;;;;;4985661;28;20073;-51
2024/02/27 04:47:23;;;;;;;27.05;13.55;;;2.60;99.90;;;;;;4989148;28;20057;-57
2024/02/27 04:49:49;;;;;;;29.85;14.88;;;2.60;99.90;;;;;;4995161;28;21441;-51
2024/02/27 04:52:14;;;;;;;31.27;15.35;;;2.60;99.90;;;;;;5008476;28;20037;-51
2024/02/27 04:54:40;;;;;;;24.05;13.55;;;2.60;99.90;;;;;;5011747;28;20040;-47
2024/02/27 04:57:06;;;;;;;30.00;14.55;;;2.60;99.90;;;;;;5002365;28;20029;-48
2024/02/27 04:59:31;;;;;;;24.27;13.57;;;2.60;99.90;;;;;;5002415;28;20058;-49
2024/02/27 05:01:57;;;;;;;23.90;14.55;;;2.60;99.90;;;;;;5015982;28;20036;-48
2024/02/27 05:04:22;;;;;;;21.20;12.27;;;2.60;99.90;;;;;;5001397;28;20041;-51
2024/02/27 05:06:48;;;;;;;19.80;12.35;;;2.60;99.90;;;;;;5009202;28;20034;-48
2024/02/27 05:09:14;;;;;;;25.33;13.48;;;2.60;99.90;;;;;;5002901;28;20077;-51
2024/02/27 05:11:39;;;;;;;18.23;11.82;;;2.50;99.90;;;;;;5000019;28;20052;-47
2024/02/27 05:14:05;;;;;;;21.40;12.88;;;2.50;99.90;;;;;;5014691;28;20022;-48
2024/02/27 05:16:30;;;;;;;19.30;11.68;;;2.50;99.90;;;;;;5005630;28;20104;-51
2024/02/27 05:18:56;;;;;;;19.55;11.45;;;2.50;99.90;;;;;;5001382;28;20493;-48
2024/02/27 05:21:21;;;;;;;22.77;12.65;;;2.50;99.90;;;;;;5010483;28;20052;-50
2024/02/27 05:23:47;;;;;;;23.42;12.90;;;2.50;99.90;;;;;;4997209;28;20060;-54
2024/02/27 05:26:15;;;;;;;21.20;12.20;;;2.50;99.90;;;;;;5013285;28;20117;-53
2024/02/27 05:28:40;;;;;;;22.65;12.48;;;2.50;99.90;;;;;;4998036;28;20518;-48
2024/02/27 05:31:25;;;;;;;19.27;12.73;;;2.50;99.90;;;;;;5005384;28;20252;-51
2024/02/27 05:33:54;;;;;;;21.83;12.82;;;2.50;99.90;;;;;;5024067;28;20171;-50
2024/02/27 05:36:20;;;;;;;22.35;12.77;;;2.50;99.90;;;;;;5008724;28;20033;-51
2024/02/27 05:38:46;;;;;;;22.58;13.50;;;2.40;99.90;;;;;;4994319;28;20025;-48
2024/02/27 05:41:12;;;;;;;21.98;13.65;;;2.40;99.90;;;;;;5013009;28;20037;-47
2024/02/27 05:43:38;;;;;;;24.65;13.85;;;2.40;99.90;;;;;;4997268;28;20419;-52
2024/02/27 05:46:05;;;;;;;21.70;14.15;;;2.40;99.90;;;;;;4996192;28;20362;-50
2024/02/27 05:48:37;;;;;;;24.80;14.93;;;2.40;99.90;;;;;;4993007;28;20021;-54
2024/02/27 05:51:03;;;;;;;29.13;15.43;;;2.40;99.90;;;;;;4995530;28;20136;-50
2024/02/27 05:53:30;;;;;;;24.33;14.02;;;2.40;99.90;;;;;;4997552;28;20064;-52
2024/02/27 05:55:56;;;;;;;29.48;15.57;;;2.40;99.90;;;;;;5014337;28;20087;-47
2024/02/27 05:58:23;;;;;;;22.65;15.05;;;2.40;99.90;;;;;;4992464;28;20104;-52
2024/02/27 06:00:50;;;;;;;22.65;14.05;;;2.40;99.90;;;;;;5005485;28;20057;-54
2024/02/27 06:03:15;;;;;;;25.67;14.48;;;2.40;99.90;;;;;;4958058;28;20030;-53
2024/02/27 06:05:41;;;;;;;23.45;13.80;;;2.50;99.90;;;;;;4944463;28;20033;-48
2024/02/27 06:08:07;;;;;;;20.58;12.75;;;2.40;99.90;;;;;;4987264;28;20041;-50
2024/02/27 06:10:32;;;;;;;21.95;13.00;;;2.40;99.90;;;;;;4939772;28;20473;-50
2024/02/27 06:12:58;;;;;;;22.88;14.68;;;2.50;99.90;;;;;;4964767;28;20033;-57
2024/02/27 06:15:23;;;;;;;23.35;14.70;;;2.50;99.90;;;;;;4978073;28;20608;-54
2024/02/27 06:17:49;;;;;;;21.83;13.30;;;2.50;99.90;;;;;;4928804;28;20060;-51
2024/02/27 06:22:58;;;;;;;22.20;12.75;;;2.40;99.90;;;;;;4985416;28;20040;-47
2024/02/27 06:25:24;;;;;;;21.88;13.85;;;2.40;99.90;;;;;;4942224;28;20489;-53
2024/02/27 06:27:49;;;;;;;21.73;13.15;;;2.40;99.90;;;;;;4994778;28;20560;-50
2024/02/27 06:30:15;;;;;;;19.65;13.40;;;2.50;99.90;;;;;;4943053;28;20028;-51
2024/02/27 06:32:41;;;;;;;23.20;13.55;;;2.50;99.90;;;;;;4952674;28;20022;-52
2024/02/27 06:35:11;;;;;;;19.77;13.18;;;2.60;99.90;;;;;;4983714;28;20040;-53
2024/02/27 06:37:36;;;;;;;19.52;13.20;;;2.50;99.90;;;;;;4937520;28;20517;-56
2024/02/27 06:40:03;;;;;;;20.52;12.70;;;2.50;99.90;;;;;;4956388;28;20025;-53
2024/02/27 06:42:35;;;;;;;18.10;12.13;;;2.40;99.90;;;;;;4951085;28;20021;-50
2024/02/27 06:45:02;;;;;;;16.88;11.18;;;2.50;99.90;;;;;;4956461;28;20501;-50
2024/02/27 06:47:28;;;;;;;15.13;10.57;;;2.50;99.90;;;;;;4966714;28;20106;-57
2024/02/27 06:49:56;;;;;;;21.33;12.02;;;2.40;99.90;;;;;;4978924;28;20624;-51
2024/02/27 06:52:22;;;;;;;17.52;11.25;;;2.40;99.90;;;;;;4915574;28;20477;-52
2024/02/27 06:54:48;;;;;;;16.30;10.05;;;2.50;99.90;;;;;;4967317;28;20017;-51
2024/02/27 06:57:15;;;;;;;13.55;10.20;;;2.40;99.90;;;;;;4951442;28;20099;-54
2024/02/27 06:59:40;;;;;;;15.40;9.75;;;2.40;99.90;;;;;;4955106;28;20107;-52
2024/02/27 07:02:06;;;;;;;15.27;11.27;;;2.50;99.90;;;;;;4980153;28;20687;-53
2024/02/27 07:04:32;;;;;;;18.27;11.18;;;2.50;99.90;;;;;;4948623;28;20024;-51
2024/02/27 07:06:59;;;;;;;13.35;9.43;;;2.50;99.90;;;;;;4950035;28;20101;-57
2024/02/27 07:09:25;;;;;;;15.48;9.23;;;2.50;99.90;;;;;;4986652;28;20038;-54
2024/02/27 07:11:51;;;;;;;13.25;9.77;;;2.50;99.90;;;;;;4948142;28;20017;-53
2024/02/27 07:14:16;;;;;;;17.70;10.63;;;2.50;99.90;;;;;;4980186;28;20084;-53
2024/02/27 07:16:42;;;;;;;13.88;9.57;;;2.60;99.90;;;;;;4946803;28;20037;-51
2024/02/27 07:19:07;;;;;;;13.80;9.88;;;2.60;99.90;;;;;;4923851;28;20476;-53
2024/02/27 07:21:33;;;;;;;13.13;9.38;;;2.60;99.90;;;;;;4989224;28;20026;-53
2024/02/27 07:23:58;;;;;;;16.35;10.43;;;2.60;99.90;;;;;;4938894;28;20493;-53
2024/02/27 07:26:24;;;;;;;15.82;10.60;;;2.60;99.90;;;;;;4969840;28;20502;-46
2024/02/27 07:28:50;;;;;;;13.77;10.07;;;2.60;99.90;;;;;;4951272;28;20025;-46
2024/02/27 07:31:18;;;;;;;10.48;8.73;;;2.60;99.90;;;;;;4924214;28;21325;-51
2024/02/27 07:33:44;;;;;;;14.70;9.68;;;2.70;99.90;;;;;;4994541;28;20466;-46
2024/02/27 07:36:10;;;;;;;12.82;8.63;;;2.70;99.90;;;;;;4942229;28;20029;-48
2024/02/27 07:38:36;;;;;;;15.88;10.02;;;2.70;99.90;;;;;;4942615;28;20041;-48
2024/02/27 07:41:02;;;;;;;12.00;9.48;;;2.80;99.90;;;;;;4978466;28;20084;-51
2024/02/27 07:43:28;;;;;;;13.52;9.38;;;2.80;99.90;;;;;;4945926;28;20021;-49
2024/02/27 07:45:53;;;;;;;11.88;8.32;;;2.80;99.90;;;;;;4972339;28;20555;-54
2024/02/27 07:48:20;;;;;;;14.05;10.15;;;2.80;99.90;;;;;;4962407;28;20152;-49
2024/02/27 07:50:49;;;;;;;13.75;10.10;;;2.70;99.90;;;;;;4944069;28;22399;-50
2024/02/27 07:53:14;;;;;;;12.73;9.32;;;2.70;99.90;;;;;;4998487;28;20033;-47
2024/02/27 07:55:41;;;;;;;13.48;9.43;;;2.70;99.90;;;;;;4934298;28;20393;-49
2024/02/27 07:58:08;;;;;;;11.63;9.38;;;2.70;99.90;;;;;;4947220;28;20045;-48
2024/02/27 08:00:34;;;;;;;14.98;10.05;;;2.80;99.90;;;;;;4984305;28;20025;-47
2024/02/27 08:02:59;;;;;;;12.13;9.43;;;2.70;99.90;;;;;;4961057;28;20035;-48
2024/02/27 08:05:28;;;;;;;12.00;9.13;;;2.70;99.90;;;;;;4970747;28;20163;-48
2024/02/27 08:07:53;;;;;;;12.63;9.63;;;2.70;99.90;;;;;;4956492;28;20026;-49
2024/02/27 08:10:20;;;;;;;13.25;9.88;;;2.70;99.90;;;;;;4935320;28;20975;-48
2024/02/27 08:12:49;;;;;;;13.85;9.85;;;2.70;99.90;;;;;;4981847;28;20111;-56
2024/02/27 08:15:15;;;;;;;14.60;11.27;;;2.70;99.90;;;;;;4938179;28;20079;-47
2024/02/27 08:17:41;;;;;;;14.55;10.18;;;2.70;99.90;;;;;;4925452;28;20076;-46
2024/02/27 08:20:08;;;;;;;13.80;9.95;;;2.80;99.90;;;;;;4993173;28;20695;-50
2024/02/27 08:22:35;;;;;;;16.80;9.88;;;2.80;99.90;;;;;;4934414;28;20116;-47
2024/02/27 08:25:01;;;;;;;18.08;11.25;;;2.80;99.90;;;;;;4942016;28;20022;-57
2024/02/27 08:27:27;;;;;;;14.68;10.77;;;2.80;99.90;;;;;;4971416;28;20030;-49
2024/02/27 08:29:52;;;;;;;14.23;10.38;;;2.80;99.90;;;;;;4940133;28;21402;-47
2024/02/27 08:32:19;;;;;;;15.63;10.10;;;2.90;99.90;;;;;;4980723;28;20025;-48
2024/02/27 08:34:45;;;;;;;13.90;9.73;;;2.90;99.90;;;;;;4923853;28;20069;-52
2024/02/27 08:37:11;;;;;;;12.60;9.98;;;2.90;99.90;;;;;;4934652;28;20095;-51
2024/02/27 08:39:36;;;;;;;15.05;10.55;;;2.90;99.90;;;;;;4975241;28;22352;-50
2024/02/27 08:42:02;;;;;;;13.05;9.55;;;3.00;99.90;;;;;;4932886;28;20485;-50
2024/02/27 08:44:28;;;;;;;12.93;9.88;;;3.00;99.90;;;;;;4954254;28;20244;-57
2024/02/27 08:46:54;;;;;;;12.95;9.60;;;3.00;99.90;;;;;;4972016;28;20041;-50
2024/02/27 08:49:19;;;;;;;14.73;9.98;;;3.00;99.90;;;;;;4924659;28;21585;-49
2024/02/27 08:51:45;;;;;;;11.30;9.13;;;3.00;99.90;;;;;;4973587;28;20022;-49
2024/02/27 08:54:11;;;;;;;10.68;8.57;;;3.00;99.90;;;;;;4947597;28;20033;-51
2024/02/27 08:56:39;;;;;;;13.85;9.52;;;3.00;99.90;;;;;;4953700;28;20018;-53
2024/02/27 08:59:08;;;;;;;11.02;9.40;;;3.10;99.90;;;;;;4952231;28;20506;-48
2024/02/27 09:01:36;;;;;;;11.48;8.90;;;3.10;99.90;;;;;;4927414;28;20079;-49
2024/02/27 09:04:02;;;;;;;11.68;8.63;;;3.10;99.90;;;;;;4933283;28;20041;-57
2024/02/27 09:06:28;;;;;;;10.25;8.02;;;3.20;99.90;;;;;;4977488;28;20057;-51
2024/02/27 09:08:53;;;;;;;11.82;9.20;;;3.20;99.90;;;;;;4930524;28;21666;-51
2024/02/27 09:11:19;;;;;;;11.40;8.55;;;3.20;99.90;;;;;;4958197;28;20029;-54
2024/02/27 09:13:44;;;;;;;11.40;9.30;;;3.30;99.90;;;;;;4921418;28;20025;-50
2024/02/27 09:16:11;;;;;;;13.25;9.20;;;3.30;99.90;;;;;;4918314;28;20041;-47
2024/02/27 09:18:39;;;;;;;11.10;8.90;;;3.40;99.90;;;;;;4976244;28;22576;-53
2024/02/27 09:21:05;;;;;;;9.35;7.63;;;3.40;99.90;;;;;;4929399;28;20036;-50
2024/02/27 09:23:31;;;;;;;11.90;9.13;;;3.50;99.90;;;;;;4923349;28;20025;-57
2024/02/27 09:25:57;;;;;;;12.10;8.85;;;3.60;99.90;;;;;;4945054;28;20041;-49
2024/02/27 09:28:22;;;;;;;9.52;8.25;;;3.60;99.90;;;;;;4924487;28;21707;-52
2024/02/27 09:30:48;;;;;;;9.40;7.65;;;3.60;99.90;;;;;;4976847;28;20028;-50
2024/02/27 09:33:14;;;;;;;11.10;8.70;;;3.60;99.90;;;;;;4923263;28;20021;-50
2024/02/27 09:35:41;;;;;;;10.75;8.30;;;3.70;99.90;;;;;;4918600;28;20030;-52
2024/02/27 09:38:07;;;;;;;9.10;7.85;;;3.70;99.90;;;;;;4945036;28;20029;-52
2024/02/27 09:40:32;;;;;;;11.15;8.48;;;3.70;99.90;;;;;;4909537;28;20038;-50
2024/02/27 09:43:01;;;;;;;10.48;8.20;;;3.80;99.90;;;;;;4925811;28;20087;-58
2024/02/27 09:45:30;;;;;;;10.90;7.53;;;3.80;99.90;;;;;;4947033;28;20028;-52
2024/02/27 09:47:59;;;;;;;9.40;7.35;;;3.80;99.90;;;;;;4919516;28;20124;-52
2024/02/27 09:50:27;;;;;;;8.05;6.93;;;3.90;99.90;;;;;;4980110;28;20044;-51
2024/02/27 09:52:54;;;;;;;9.73;8.00;;;4.00;99.90;;;;;;4941807;28;20028;-48
2024/02/27 09:55:21;;;;;;;10.10;8.43;;;4.00;99.90;;;;;;4930645;28;20021;-53
2024/02/27 09:57:47;;;;;;;8.90;7.93;;;4.10;99.90;;;;;;4965771;28;20030;-52
2024/02/27 10:00:15;;;;;;;10.23;7.68;;;4.20;99.90;;;;;;4932642;28;20088;-49
2024/02/27 10:02:41;;;;;;;9.15;7.65;;;4.30;99.90;;;;;;4938034;28;20025;-54
2024/02/27 10:05:07;;;;;;;10.10;8.07;;;4.20;99.90;;;;;;4962009;28;20022;-53
2024/02/27 10:07:33;;;;;;;9.73;7.93;;;4.20;99.90;;;;;;4936467;28;20053;-48
2024/02/27 10:10:00;;;;;;;10.75;7.85;;;4.10;99.90;;;;;;4930538;28;20017;-47
2024/02/27 10:12:25;;;;;;;9.52;7.28;;;4.00;99.90;;;;;;4962545;28;20022;-50
2024/02/27 10:14:51;;;;;;;8.77;7.40;;;4.00;99.90;;;;;;4948109;28;20036;-52
2024/02/27 10:17:16;;;;;;;8.55;6.60;;;4.10;99.90;;;;;;4968343;28;20040;-53
2024/02/27 10:19:42;;;;;;;8.95;6.80;;;4.10;99.90;;;;;;4916432;28;20025;-49
2024/02/27 10:22:08;;;;;;;9.63;8.02;;;4.10;99.90;;;;;;4923559;28;20060;-51
2024/02/27 10:24:34;;;;;;;9.55;6.72;;;4.10;99.90;;;;;;4966281;28;20072;-51
2024/02/27 10:27:02;;;;;;;8.05;7.15;;;4.10;99.90;;;;;;4947944;28;20025;-57
2024/02/27 10:29:29;;;;;;;8.10;6.82;;;4.10;99.90;;;;;;4988016;28;20030;-56
2024/02/27 10:31:55;;;;;;;10.10;7.35;;;4.20;99.90;;;;;;4967980;28;20018;-53
2024/02/27 10:34:23;;;;;;;7.95;6.60;;;4.30;99.90;;;;;;4941999;28;20036;-48
2024/02/27 10:37:05;;;;;;;11.02;7.10;;;4.40;99.90;;;;;;4961029;28;20032;-50
2024/02/27 10:39:32;;;;;;;7.28;6.35;;;4.40;99.90;;;;;;4943949;28;20037;-49
2024/02/27 10:41:58;;;;;;;8.13;7.07;;;4.50;99.90;;;;;;4960613;28;20087;-51
2024/02/27 10:44:25;;;;;;;10.68;8.63;;;4.60;99.90;;;;;;4997226;28;20037;-50
2024/02/27 10:46:55;;;;;;;10.23;7.55;;;4.50;99.90;;;;;;4942438;28;20116;-51
2024/02/27 10:49:21;;;;;;;9.57;7.85;;;4.50;99.90;;;;;;4956600;28;20033;-52
2024/02/27 10:51:52;;;;;;;8.90;6.85;;;4.50;99.90;;;;;;4932822;28;20043;-49
2024/02/27 10:54:18;;;;;;;9.23;7.60;;;4.50;99.90;;;;;;4955888;28;20327;-58
2024/02/27 10:56:48;;;;;;;10.25;7.43;;;4.40;99.90;;;;;;4951131;28;20033;-51
2024/02/27 10:59:13;;;;;;;10.07;7.60;;;4.30;99.90;;;;;;4983391;28;21911;-51
2024/02/27 11:01:41;;;;;;;11.73;8.57;;;4.40;99.90;;;;;;4968961;28;20409;-52
2024/02/27 11:04:22;;;;;;;9.48;7.32;;;4.30;99.90;;;;;;4936531;28;20022;-52
2024/02/27 11:06:50;;;;;;;8.02;6.25;;;4.40;99.90;;;;;;4942286;28;20516;-51
2024/02/27 11:09:24;;;;;;;10.77;7.53;;;4.60;99.90;;;;;;4961663;28;20030;-49
2024/02/27 11:11:55;;;;;;;8.23;6.97;;;4.70;99.90;;;;;;4959475;28;21544;-51
2024/02/27 11:14:26;;;;;;;8.60;7.65;;;4.80;99.90;;;;;;4978558;28;20033;-49
2024/02/27 11:16:58;;;;;;;10.95;7.88;;;4.80;99.90;;;;;;4955277;28;20039;-49
2024/02/27 11:19:26;;;;;;;10.13;7.38;;;4.80;99.90;;;;;;4953485;28;20620;-51
2024/02/27 11:21:52;;;;;;;7.30;6.60;;;4.80;99.90;;;;;;4923911;28;20120;-52
2024/02/27 11:24:19;;;;;;;8.35;6.68;;;4.80;99.90;;;;;;4950526;28;20091;-55
2024/02/27 11:26:45;;;;;;;9.65;7.30;;;4.90;99.90;;;;;;4980463;28;20498;-49
2024/02/27 11:29:13;;;;;;;7.70;6.88;;;4.80;99.90;;;;;;4999106;28;20497;-49
2024/02/27 11:31:39;;;;;;;8.88;6.55;;;4.80;99.90;;;;;;4959911;28;20025;-51
2024/02/27 11:34:07;;;;;;;7.28;6.38;;;4.80;99.90;;;;;;4927576;28;20237;-47
2024/02/27 11:36:33;;;;;;;6.80;6.10;;;4.80;99.90;;;;;;4943537;28;20052;-49
2024/02/27 11:38:59;;;;;;;9.23;7.63;;;4.80;99.90;;;;;;4952481;28;20816;-50
2024/02/27 11:41:26;;;;;;;8.10;7.15;;;4.90;99.90;;;;;;4990905;28;20053;-49
2024/02/27 11:43:54;;;;;;;8.50;7.07;;;5.00;99.90;;;;;;4962763;28;20558;-52
2024/02/27 11:46:29;;;;;;;8.30;7.28;;;5.00;99.90;;;;;;4957508;28;20033;-51
2024/02/27 11:48:55;;;;;;;7.80;6.43;;;4.80;99.90;;;;;;4974219;28;20029;-51
2024/02/27 11:51:34;;;;;;;11.38;6.28;;;4.90;99.90;;;;;;4924225;28;20043;-48
2024/02/27 11:54:00;;;;;;;10.20;7.07;;;5.00;99.90;;;;;;4949171;28;20036;-50
2024/02/27 11:56:26;;;;;;;8.25;6.22;;;5.00;99.90;;;;;;4982610;28;20041;-47
2024/02/27 11:58:54;;;;;;;6.38;5.50;;;5.00;99.90;;;;;;4953462;28;20480;-49
2024/02/27 12:01:22;;;;;;;8.52;6.47;;;5.10;99.90;;;;;;4943065;28;20029;-51
2024/02/27 12:03:48;;;;;;;7.20;5.72;;;5.20;99.90;;;;;;4902120;28;20049;-49
2024/02/27 12:06:14;;;;;;;7.85;6.20;;;5.20;99.90;;;;;;4947907;28;20041;-51
2024/02/27 12:08:50;;;;;;;7.43;5.80;;;5.20;99.90;;;;;;4908924;28;20128;-58
2024/02/27 12:11:18;;;;;;;7.55;6.40;;;5.10;99.90;;;;;;4968394;28;20033;-50
2024/02/27 12:13:48;;;;;;;7.57;6.10;;;5.10;99.90;;;;;;4949337;28;20057;-51
2024/02/27 12:16:24;;;;;;;6.78;6.00;;;5.00;99.90;;;;;;4928647;28;20033;-48
2024/02/27 12:18:51;;;;;;;6.47;5.63;;;5.00;99.90;;;;;;4928158;28;20037;-54
2024/02/27 12:21:30;;;;;;;7.22;5.63;;;5.10;99.90;;;;;;4943821;28;20060;-58
2024/02/27 12:24:16;;;;;;;7.07;5.45;;;5.30;99.90;;;;;;4940017;28;21496;-49
2024/02/27 12:26:43;;;;;;;7.75;6.28;;;5.50;99.90;;;;;;4931294;28;20457;-54
2024/02/27 12:29:09;;;;;;;5.85;5.25;;;5.60;99.90;;;;;;4953764;28;20043;-48
2024/02/27 12:31:36;;;;;;;7.05;5.35;;;5.70;99.90;;;;;;4949592;28;20096;-51
2024/02/27 12:34:03;;;;;;;7.05;6.13;;;5.80;99.90;;;;;;4914914;28;20490;-48
2024/02/27 12:36:28;;;;;;;7.88;6.00;;;5.90;99.90;;;;;;4928908;28;20017;-49
2024/02/27 12:38:54;;;;;;;6.35;5.47;;;6.00;99.90;;;;;;4937005;28;20036;-51
2024/02/27 12:41:21;;;;;;;8.02;5.90;;;6.10;99.90;;;;;;4997522;28;20430;-49
2024/02/27 12:43:47;;;;;;;6.68;5.55;;;6.10;99.90;;;;;;4985558;28;20537;-49